Etusivu
METAR-TAF:

METAR-TAF

Lentoasemat :

Enontekiön lentoasema

Enontekiö, Suomi

Leveyspiiri: 68-21-52N, Pituuspiiri: 023-25-39E, korkeus merenpinnasta: 308 m

Tämänhetkinen sää

Tämä raportti tehtiin 9 minuuttia sitten, kello 17.20 UTC
Tuuli 2 kn lännestä/lounaasta
Lämpötila -21°C
Kosteus 84%
Ilmanpaine 1027 hPa
Näkyvyys 10 km tai enemmän
ei pilviä alle 1500 m:ssä eikä cumulonimbus-pilviä

METAR: EFET 141720Z AUTO 25002KT CAVOK M21/M23 Q1027

Aika: 19:29 (17:29 UTC)

Sääennuste

Tämä raportti tehtiin 5 tuntia ja 52 minuuttia sitten, kello 11.37 UTC
Ennuste voimassa 14. päivästä klo 12 UTC - 14. päivään klo 15 UTC
Tuuli 5 kn lännestä
Näkyvyys 10 km tai enemmän
ei pilviä alle 1500 m:ssä eikä cumulonimbus-pilviä

TAF: EFET 141137Z 1412/1415 27005KT CAVOK

Säähavainnot ja -ennusteet yli 4000 lentoasemalta (METAR- ja TAF-raportit).

Käytössä olevat sääasemat on merkitty karttaan keltaisilla ja punaisilla pisteillä.

Aseta hiiri pisteen päälle nähdäksesi sääaseman nimen.

Klikkaa sitten nähdäksesi säähavainnot ja -ennusteet.

Kartan vaihtaminen: klikkaa mustalla rastilla varustettuja vihreitä pisteitä, niin voit zoomata sisään; viivalla varustettua vihreää pistettä, niin voit zoomata ulos tai vihreitä nuolia, niin pääset viereisille kartoille.


METAR-TAF: